Altoona, PA

8:21 AM EDT on March 28, 2017 (GMT -0400)
MRTDP1 | | Change Station

Elev 836 ft 40.44 °N, 78.01 °W | Updated 7 hours ago

Light Rain
Light Rain Mist
53.0 °F
Feels Like 53.0 °F
N
-
Wind Variable Wind from North

Today
High -- | Low -- °F
--% Chance of Precip.
Yesterday
High -- | Low -- °F
Precip. -- in
Pressure 29.88 in
Visibility 1.2 miles
Clouds Overcast 6000 ft
Dew Point Not available.
Humidity Not available.
Rainfall in
Snow Depth Not available.
7:03 AM 7:33 PM
New Moon, 0% visible
METAR KAOO 281153Z AUTO 00000KT 1 1/4SM -RA BR OVC060 11/11 A2988 RMK AO2 RAB1054 SLP116 P0002 60002 70002 T01110106 10139 20106 53009
Pressure 29.88 in
Visibility 1.2 miles
Clouds Overcast 6000 ft
Dew Point Not available.
Humidity Not available.
Rainfall in
Snow Depth Not available.
7:03 AM 7:33 PM
New Moon, 0% visible
METAR KAOO 281153Z AUTO 00000KT 1 1/4SM -RA BR OVC060 11/11 A2988 RMK AO2 RAB1054 SLP116 P0002 60002 70002 T01110106 10139 20106 53009

Get Severe Weather Alerts

Thanks for signing up!

Be on the lookout for a verification email in your inbox.

You'll start receiving the daily forecast at 8 AM.

×

10-Day Weather Forecast

Almanac

Astronomy

Mar. 28, 2017 Rise Set
Actual Time
Civil Twilight
Nautical Twilight
Astronomical Twilight
Moon
Length of Visible Light
Length of Day
Tomorrow will be .
, % of the Moon is Illuminated

Today's Extremes

State Highs State Lows

Community

WunderPhotos

Upload Photos

1,962,540 photos uploaded!

WunderBlog® & News

Nearby

Air Quality

  Air Quality AQ Index Pollutant
Not available.

Snow Depth

Station Depth Elevation

Earthquake Activity

City Distance Mag. Time & Date
Minimum magnitude displayed is 2.5.

Earthquake Activity

City Distance Mag. Time & Date
Minimum magnitude displayed is 2.5.

Coastal Water Temperatures

Place Temperature

Stations

Nearby Weather Stations

Station Location Temp. Windchill Dew Point Humidity Wind Precip. Elev Updated Type
                   

Watches & Warnings

There are currently no watches in effect.